sensor_id;sensor_type;location;lat;lon;timestamp;P1;durP1;ratioP1;P2;durP2;ratioP2
59239;SDS011;45010;53.640;10.578;2022-07-11T00:01:52;2.45;;;0.77;;
59239;SDS011;45010;53.640;10.578;2022-07-11T00:04:52;1.83;;;0.90;;
59239;SDS011;45010;53.640;10.578;2022-07-11T00:07:52;1.67;;;0.43;;
59239;SDS011;45010;53.640;10.578;2022-07-11T00:10:53;4.28;;;0.68;;
59239;SDS011;45010;53.640;10.578;2022-07-11T00:13:53;2.38;;;0.68;;
59239;SDS011;45010;53.640;10.578;2022-07-11T00:16:54;1.20;;;0.55;;
59239;SDS011;45010;53.640;10.578;2022-07-11T00:19:54;3.13;;;0.77;;
59239;SDS011;45010;53.640;10.578;2022-07-11T00:22:54;2.13;;;0.68;;
59239;SDS011;45010;53.640;10.578;2022-07-11T00:25:55;2.83;;;0.77;;
59239;SDS011;45010;53.640;10.578;2022-07-11T00:28:55;1.55;;;0.50;;
59239;SDS011;45010;53.640;10.578;2022-07-11T00:31:56;2.40;;;0.65;;
59239;SDS011;45010;53.640;10.578;2022-07-11T00:34:57;1.38;;;0.57;;
59239;SDS011;45010;53.640;10.578;2022-07-11T00:37:58;0.90;;;0.50;;
59239;SDS011;45010;53.640;10.578;2022-07-11T00:40:58;2.13;;;0.52;;
59239;SDS011;45010;53.640;10.578;2022-07-11T00:43:59;2.13;;;0.50;;
59239;SDS011;45010;53.640;10.578;2022-07-11T00:47:00;0.82;;;0.40;;
59239;SDS011;45010;53.640;10.578;2022-07-11T00:50:00;1.00;;;0.45;;
59239;SDS011;45010;53.640;10.578;2022-07-11T00:53:00;1.20;;;0.50;;
59239;SDS011;45010;53.640;10.578;2022-07-11T00:56:01;1.90;;;0.70;;
59239;SDS011;45010;53.640;10.578;2022-07-11T00:59:02;2.40;;;0.50;;
59239;SDS011;45010;53.640;10.578;2022-07-11T01:02:02;1.92;;;0.80;;
59239;SDS011;45010;53.640;10.578;2022-07-11T01:05:04;2.47;;;0.50;;
59239;SDS011;45010;53.640;10.578;2022-07-11T01:08:05;1.73;;;0.65;;
59239;SDS011;45010;53.640;10.578;2022-07-11T01:11:07;1.10;;;0.40;;
59239;SDS011;45010;53.640;10.578;2022-07-11T01:14:18;1.05;;;0.50;;
59239;SDS011;45010;53.640;10.578;2022-07-11T01:17:19;1.85;;;0.77;;
59239;SDS011;45010;53.640;10.578;2022-07-11T01:20:20;1.15;;;0.70;;
59239;SDS011;45010;53.640;10.578;2022-07-11T01:23:22;1.17;;;0.43;;
59239;SDS011;45010;53.640;10.578;2022-07-11T01:26:23;3.00;;;0.75;;
59239;SDS011;45010;53.640;10.578;2022-07-11T01:29:24;1.70;;;0.68;;
59239;SDS011;45010;53.640;10.578;2022-07-11T01:32:25;1.52;;;0.50;;
59239;SDS011;45010;53.640;10.578;2022-07-11T01:35:26;1.65;;;0.40;;
59239;SDS011;45010;53.640;10.578;2022-07-11T01:38:28;1.67;;;0.50;;
59239;SDS011;45010;53.640;10.578;2022-07-11T01:41:28;1.50;;;0.50;;
59239;SDS011;45010;53.640;10.578;2022-07-11T01:44:28;0.90;;;0.43;;
59239;SDS011;45010;53.640;10.578;2022-07-11T01:47:29;1.77;;;0.50;;
59239;SDS011;45010;53.640;10.578;2022-07-11T01:50:30;2.30;;;0.60;;
59239;SDS011;45010;53.640;10.578;2022-07-11T01:53:30;1.50;;;0.57;;
59239;SDS011;45010;53.640;10.578;2022-07-11T01:56:30;2.05;;;0.73;;
59239;SDS011;45010;53.640;10.578;2022-07-11T01:59:33;1.25;;;0.50;;
59239;SDS011;45010;53.640;10.578;2022-07-11T02:02:33;1.45;;;0.40;;
59239;SDS011;45010;53.640;10.578;2022-07-11T02:05:33;1.58;;;0.50;;
59239;SDS011;45010;53.640;10.578;2022-07-11T02:08:34;1.38;;;0.47;;
59239;SDS011;45010;53.640;10.578;2022-07-11T02:11:34;2.03;;;0.57;;
59239;SDS011;45010;53.640;10.578;2022-07-11T02:14:34;0.93;;;0.43;;
59239;SDS011;45010;53.640;10.578;2022-07-11T02:17:35;1.88;;;0.57;;
59239;SDS011;45010;53.640;10.578;2022-07-11T02:20:35;1.73;;;0.50;;
59239;SDS011;45010;53.640;10.578;2022-07-11T02:23:36;1.90;;;0.50;;
59239;SDS011;45010;53.640;10.578;2022-07-11T02:26:36;1.60;;;0.50;;
59239;SDS011;45010;53.640;10.578;2022-07-11T02:29:36;1.67;;;0.50;;
59239;SDS011;45010;53.640;10.578;2022-07-11T02:32:37;1.17;;;0.50;;
59239;SDS011;45010;53.640;10.578;2022-07-11T02:35:37;1.75;;;0.50;;
59239;SDS011;45010;53.640;10.578;2022-07-11T02:38:38;1.05;;;0.40;;
59239;SDS011;45010;53.640;10.578;2022-07-11T02:41:38;1.25;;;0.63;;
59239;SDS011;45010;53.640;10.578;2022-07-11T02:44:39;1.70;;;0.60;;
59239;SDS011;45010;53.640;10.578;2022-07-11T02:47:40;0.85;;;0.40;;
59239;SDS011;45010;53.640;10.578;2022-07-11T02:50:42;1.05;;;0.50;;
59239;SDS011;45010;53.640;10.578;2022-07-11T02:53:42;0.63;;;0.40;;
59239;SDS011;45010;53.640;10.578;2022-07-11T02:56:42;1.83;;;0.50;;
59239;SDS011;45010;53.640;10.578;2022-07-11T02:59:43;0.82;;;0.50;;
59239;SDS011;45010;53.640;10.578;2022-07-11T03:02:43;0.75;;;0.35;;
59239;SDS011;45010;53.640;10.578;2022-07-11T03:05:44;1.27;;;0.40;;
59239;SDS011;45010;53.640;10.578;2022-07-11T03:08:45;1.58;;;0.57;;
59239;SDS011;45010;53.640;10.578;2022-07-11T03:11:45;0.52;;;0.40;;
59239;SDS011;45010;53.640;10.578;2022-07-11T03:14:45;2.50;;;0.73;;
59239;SDS011;45010;53.640;10.578;2022-07-11T03:17:46;0.77;;;0.32;;
59239;SDS011;45010;53.640;10.578;2022-07-11T03:20:46;1.45;;;0.57;;
59239;SDS011;45010;53.640;10.578;2022-07-11T03:23:47;0.75;;;0.40;;
59239;SDS011;45010;53.640;10.578;2022-07-11T03:26:47;0.88;;;0.30;;
59239;SDS011;45010;53.640;10.578;2022-07-11T03:29:47;1.95;;;0.50;;
59239;SDS011;45010;53.640;10.578;2022-07-11T03:32:48;1.05;;;0.40;;
59239;SDS011;45010;53.640;10.578;2022-07-11T03:35:48;1.55;;;0.38;;
59239;SDS011;45010;53.640;10.578;2022-07-11T03:38:48;0.68;;;0.40;;
59239;SDS011;45010;53.640;10.578;2022-07-11T03:41:49;1.35;;;0.55;;
59239;SDS011;45010;53.640;10.578;2022-07-11T03:44:49;0.90;;;0.30;;
59239;SDS011;45010;53.640;10.578;2022-07-11T03:47:51;1.92;;;0.50;;
59239;SDS011;45010;53.640;10.578;2022-07-11T03:50:51;1.52;;;0.60;;
59239;SDS011;45010;53.640;10.578;2022-07-11T03:53:52;0.77;;;0.50;;
59239;SDS011;45010;53.640;10.578;2022-07-11T03:56:52;1.58;;;0.50;;
59239;SDS011;45010;53.640;10.578;2022-07-11T03:59:52;2.10;;;0.80;;
59239;SDS011;45010;53.640;10.578;2022-07-11T04:02:53;2.22;;;0.50;;
59239;SDS011;45010;53.640;10.578;2022-07-11T04:05:53;1.13;;;0.43;;
59239;SDS011;45010;53.640;10.578;2022-07-11T04:08:53;0.85;;;0.40;;
59239;SDS011;45010;53.640;10.578;2022-07-11T04:11:54;2.05;;;0.43;;
59239;SDS011;45010;53.640;10.578;2022-07-11T04:14:54;0.63;;;0.45;;
59239;SDS011;45010;53.640;10.578;2022-07-11T04:17:54;1.45;;;0.40;;
59239;SDS011;45010;53.640;10.578;2022-07-11T04:20:55;1.52;;;0.50;;
59239;SDS011;45010;53.640;10.578;2022-07-11T04:23:55;2.60;;;0.70;;
59239;SDS011;45010;53.640;10.578;2022-07-11T04:26:55;0.93;;;0.40;;
59239;SDS011;45010;53.640;10.578;2022-07-11T04:29:56;1.25;;;0.45;;
59239;SDS011;45010;53.640;10.578;2022-07-11T04:32:56;1.50;;;0.50;;
59239;SDS011;45010;53.640;10.578;2022-07-11T04:35:56;1.65;;;0.43;;
59239;SDS011;45010;53.640;10.578;2022-07-11T04:38:57;0.93;;;0.50;;
59239;SDS011;45010;53.640;10.578;2022-07-11T04:41:58;1.30;;;0.57;;
59239;SDS011;45010;53.640;10.578;2022-07-11T04:44:59;1.90;;;0.70;;
59239;SDS011;45010;53.640;10.578;2022-07-11T04:48:00;2.30;;;0.60;;
59239;SDS011;45010;53.640;10.578;2022-07-11T04:51:01;0.40;;;0.30;;
59239;SDS011;45010;53.640;10.578;2022-07-11T04:54:02;1.23;;;0.43;;
59239;SDS011;45010;53.640;10.578;2022-07-11T04:57:02;1.52;;;0.47;;
59239;SDS011;45010;53.640;10.578;2022-07-11T05:00:03;1.67;;;0.50;;
59239;SDS011;45010;53.640;10.578;2022-07-11T05:03:04;0.93;;;0.52;;
59239;SDS011;45010;53.640;10.578;2022-07-11T05:06:05;1.05;;;0.57;;
59239;SDS011;45010;53.640;10.578;2022-07-11T05:09:06;1.27;;;0.50;;
59239;SDS011;45010;53.640;10.578;2022-07-11T05:12:07;1.85;;;0.50;;
59239;SDS011;45010;53.640;10.578;2022-07-11T05:15:08;1.02;;;0.43;;
59239;SDS011;45010;53.640;10.578;2022-07-11T05:18:09;1.27;;;0.43;;
59239;SDS011;45010;53.640;10.578;2022-07-11T05:21:09;0.80;;;0.47;;
59239;SDS011;45010;53.640;10.578;2022-07-11T05:24:10;1.83;;;0.60;;
59239;SDS011;45010;53.640;10.578;2022-07-11T05:27:10;0.88;;;0.47;;
59239;SDS011;45010;53.640;10.578;2022-07-11T05:30:11;0.55;;;0.50;;
59239;SDS011;45010;53.640;10.578;2022-07-11T05:33:11;0.60;;;0.40;;
59239;SDS011;45010;53.640;10.578;2022-07-11T05:36:11;0.98;;;0.60;;
59239;SDS011;45010;53.640;10.578;2022-07-11T05:39:12;1.15;;;0.63;;
59239;SDS011;45010;53.640;10.578;2022-07-11T05:42:12;2.03;;;0.47;;
59239;SDS011;45010;53.640;10.578;2022-07-11T05:45:14;1.92;;;0.70;;
59239;SDS011;45010;53.640;10.578;2022-07-11T05:48:14;0.70;;;0.40;;
59239;SDS011;45010;53.640;10.578;2022-07-11T05:51:15;1.25;;;0.60;;
59239;SDS011;45010;53.640;10.578;2022-07-11T05:54:16;2.38;;;0.70;;
59239;SDS011;45010;53.640;10.578;2022-07-11T05:57:16;1.40;;;0.70;;
59239;SDS011;45010;53.640;10.578;2022-07-11T06:00:17;1.40;;;0.60;;
59239;SDS011;45010;53.640;10.578;2022-07-11T06:03:17;3.55;;;0.50;;
59239;SDS011;45010;53.640;10.578;2022-07-11T06:06:18;0.70;;;0.40;;
59239;SDS011;45010;53.640;10.578;2022-07-11T06:09:18;0.70;;;0.40;;
59239;SDS011;45010;53.640;10.578;2022-07-11T06:12:18;0.95;;;0.40;;
59239;SDS011;45010;53.640;10.578;2022-07-11T06:15:19;2.25;;;0.85;;
59239;SDS011;45010;53.640;10.578;2022-07-11T06:18:19;2.97;;;0.70;;
59239;SDS011;45010;53.640;10.578;2022-07-11T06:21:20;1.90;;;0.50;;
59239;SDS011;45010;53.640;10.578;2022-07-11T06:24:21;1.65;;;0.47;;
59239;SDS011;45010;53.640;10.578;2022-07-11T06:27:21;1.63;;;0.68;;
59239;SDS011;45010;53.640;10.578;2022-07-11T06:30:22;3.45;;;0.70;;
59239;SDS011;45010;53.640;10.578;2022-07-11T06:33:22;2.42;;;0.55;;
59239;SDS011;45010;53.640;10.578;2022-07-11T06:36:26;2.35;;;0.55;;
59239;SDS011;45010;53.640;10.578;2022-07-11T06:39:26;4.55;;;0.50;;
59239;SDS011;45010;53.640;10.578;2022-07-11T06:42:27;1.00;;;0.40;;
59239;SDS011;45010;53.640;10.578;2022-07-11T06:45:27;1.33;;;0.95;;
59239;SDS011;45010;53.640;10.578;2022-07-11T06:48:27;0.85;;;0.50;;
59239;SDS011;45010;53.640;10.578;2022-07-11T06:51:28;1.73;;;0.60;;
59239;SDS011;45010;53.640;10.578;2022-07-11T06:54:28;2.53;;;0.80;;
59239;SDS011;45010;53.640;10.578;2022-07-11T06:57:28;5.60;;;1.10;;
59239;SDS011;45010;53.640;10.578;2022-07-11T07:00:29;2.50;;;0.70;;
59239;SDS011;45010;53.640;10.578;2022-07-11T07:03:29;3.88;;;0.90;;
59239;SDS011;45010;53.640;10.578;2022-07-11T07:06:30;3.38;;;0.90;;
59239;SDS011;45010;53.640;10.578;2022-07-11T07:09:30;3.90;;;0.80;;
59239;SDS011;45010;53.640;10.578;2022-07-11T07:12:31;1.88;;;0.73;;
59239;SDS011;45010;53.640;10.578;2022-07-11T07:15:31;5.05;;;0.88;;
59239;SDS011;45010;53.640;10.578;2022-07-11T07:18:32;3.65;;;0.65;;
59239;SDS011;45010;53.640;10.578;2022-07-11T07:21:33;4.57;;;0.98;;
59239;SDS011;45010;53.640;10.578;2022-07-11T07:24:33;2.67;;;0.70;;
59239;SDS011;45010;53.640;10.578;2022-07-11T07:27:33;6.97;;;0.68;;
59239;SDS011;45010;53.640;10.578;2022-07-11T07:30:34;4.78;;;0.82;;
59239;SDS011;45010;53.640;10.578;2022-07-11T07:33:34;4.28;;;1.00;;
59239;SDS011;45010;53.640;10.578;2022-07-11T07:36:35;2.25;;;0.65;;
59239;SDS011;45010;53.640;10.578;2022-07-11T07:39:35;2.10;;;0.70;;
59239;SDS011;45010;53.640;10.578;2022-07-11T07:42:35;2.58;;;0.65;;
59239;SDS011;45010;53.640;10.578;2022-07-11T07:45:36;3.55;;;0.60;;
59239;SDS011;45010;53.640;10.578;2022-07-11T07:48:36;3.20;;;0.95;;
59239;SDS011;45010;53.640;10.578;2022-07-11T07:51:40;8.00;;;0.70;;
59239;SDS011;45010;53.640;10.578;2022-07-11T07:54:40;5.22;;;0.70;;
59239;SDS011;45010;53.640;10.578;2022-07-11T07:57:41;2.58;;;0.80;;
59239;SDS011;45010;53.640;10.578;2022-07-11T08:00:41;3.38;;;0.90;;
59239;SDS011;45010;53.640;10.578;2022-07-11T08:04:01;5.63;;;0.98;;
59239;SDS011;45010;53.640;10.578;2022-07-11T08:07:02;2.55;;;0.70;;
59239;SDS011;45010;53.640;10.578;2022-07-11T08:10:06;4.03;;;1.00;;
59239;SDS011;45010;53.640;10.578;2022-07-11T08:13:06;2.95;;;0.80;;
59239;SDS011;45010;53.640;10.578;2022-07-11T08:16:07;3.65;;;0.70;;
59239;SDS011;45010;53.640;10.578;2022-07-11T08:19:07;3.90;;;0.80;;
59239;SDS011;45010;53.640;10.578;2022-07-11T08:22:07;4.00;;;0.68;;
59239;SDS011;45010;53.640;10.578;2022-07-11T08:25:08;3.67;;;0.80;;
59239;SDS011;45010;53.640;10.578;2022-07-11T08:28:08;3.03;;;0.60;;
59239;SDS011;45010;53.640;10.578;2022-07-11T08:31:08;3.55;;;1.08;;
59239;SDS011;45010;53.640;10.578;2022-07-11T08:34:09;5.90;;;0.93;;
59239;SDS011;45010;53.640;10.578;2022-07-11T08:37:09;2.72;;;0.80;;
59239;SDS011;45010;53.640;10.578;2022-07-11T08:40:10;4.55;;;0.70;;
59239;SDS011;45010;53.640;10.578;2022-07-11T08:43:14;3.10;;;0.73;;
59239;SDS011;45010;53.640;10.578;2022-07-11T08:46:15;2.10;;;0.68;;
59239;SDS011;45010;53.640;10.578;2022-07-11T08:49:16;3.63;;;0.95;;
59239;SDS011;45010;53.640;10.578;2022-07-11T08:52:17;2.05;;;0.50;;
59239;SDS011;45010;53.640;10.578;2022-07-11T08:55:19;2.05;;;0.70;;
59239;SDS011;45010;53.640;10.578;2022-07-11T08:58:20;1.92;;;0.70;;
59239;SDS011;45010;53.640;10.578;2022-07-11T09:01:34;3.25;;;0.63;;
59239;SDS011;45010;53.640;10.578;2022-07-11T09:04:36;3.20;;;0.73;;
59239;SDS011;45010;53.640;10.578;2022-07-11T09:07:47;2.95;;;0.50;;
59239;SDS011;45010;53.640;10.578;2022-07-11T09:10:48;1.63;;;0.55;;
59239;SDS011;45010;53.640;10.578;2022-07-11T09:13:49;1.90;;;0.50;;
59239;SDS011;45010;53.640;10.578;2022-07-11T09:16:59;1.05;;;0.50;;
59239;SDS011;45010;53.640;10.578;2022-07-11T09:20:01;3.33;;;0.60;;
59239;SDS011;45010;53.640;10.578;2022-07-11T09:23:02;1.65;;;0.50;;
59239;SDS011;45010;53.640;10.578;2022-07-11T09:26:21;2.03;;;0.60;;
59239;SDS011;45010;53.640;10.578;2022-07-11T09:29:21;2.58;;;0.60;;
59239;SDS011;45010;53.640;10.578;2022-07-11T09:32:25;1.83;;;0.68;;
59239;SDS011;45010;53.640;10.578;2022-07-11T09:35:36;1.48;;;0.50;;
59239;SDS011;45010;53.640;10.578;2022-07-11T09:38:37;1.98;;;0.55;;
59239;SDS011;45010;53.640;10.578;2022-07-11T09:41:56;1.95;;;0.60;;
59239;SDS011;45010;53.640;10.578;2022-07-11T09:44:58;1.88;;;0.60;;
59239;SDS011;45010;53.640;10.578;2022-07-11T09:48:11;1.88;;;0.50;;
59239;SDS011;45010;53.640;10.578;2022-07-11T09:51:12;3.85;;;0.80;;
59239;SDS011;45010;53.640;10.578;2022-07-11T09:54:19;2.83;;;0.55;;
59239;SDS011;45010;53.640;10.578;2022-07-11T09:57:30;3.22;;;0.50;;
59239;SDS011;45010;53.640;10.578;2022-07-11T10:00:37;5.90;;;0.90;;
59239;SDS011;45010;53.640;10.578;2022-07-11T10:03:39;3.30;;;0.43;;
59239;SDS011;45010;53.640;10.578;2022-07-11T10:06:39;1.83;;;0.52;;
59239;SDS011;45010;53.640;10.578;2022-07-11T10:09:39;1.05;;;0.55;;
59239;SDS011;45010;53.640;10.578;2022-07-11T10:12:40;2.90;;;0.60;;
59239;SDS011;45010;53.640;10.578;2022-07-11T10:15:40;2.50;;;0.52;;
59239;SDS011;45010;53.640;10.578;2022-07-11T10:18:46;3.28;;;0.63;;
59239;SDS011;45010;53.640;10.578;2022-07-11T10:21:56;2.75;;;0.60;;
59239;SDS011;45010;53.640;10.578;2022-07-11T10:35:09;2.25;;;0.50;;
59239;SDS011;45010;53.640;10.578;2022-07-11T10:38:11;2.78;;;0.50;;
59239;SDS011;45010;53.640;10.578;2022-07-11T10:41:20;0.93;;;0.40;;
59239;SDS011;45010;53.640;10.578;2022-07-11T10:44:21;1.85;;;0.40;;
59239;SDS011;45010;53.640;10.578;2022-07-11T10:47:32;2.38;;;0.60;;
59239;SDS011;45010;53.640;10.578;2022-07-11T10:50:41;3.30;;;0.75;;
59239;SDS011;45010;53.640;10.578;2022-07-11T10:53:47;1.73;;;0.40;;
59239;SDS011;45010;53.640;10.578;2022-07-11T11:00:27;1.08;;;0.47;;
59239;SDS011;45010;53.640;10.578;2022-07-11T11:03:29;1.85;;;0.40;;
59239;SDS011;45010;53.640;10.578;2022-07-11T11:06:54;1.23;;;0.60;;
59239;SDS011;45010;53.640;10.578;2022-07-11T11:09:57;1.35;;;0.30;;
59239;SDS011;45010;53.640;10.578;2022-07-11T11:16:20;6.20;;;1.13;;
59239;SDS011;45010;53.640;10.578;2022-07-11T11:23:07;2.67;;;0.50;;
59239;SDS011;45010;53.640;10.578;2022-07-11T11:29:11;1.63;;;0.43;;
59239;SDS011;45010;53.640;10.578;2022-07-11T11:32:11;2.47;;;0.63;;
59239;SDS011;45010;53.640;10.578;2022-07-11T11:35:12;1.55;;;0.32;;
59239;SDS011;45010;53.640;10.578;2022-07-11T11:38:12;1.02;;;0.40;;
59239;SDS011;45010;53.640;10.578;2022-07-11T11:41:14;1.48;;;0.40;;
59239;SDS011;45010;53.640;10.578;2022-07-11T11:44:21;1.23;;;0.40;;
59239;SDS011;45010;53.640;10.578;2022-07-11T11:47:22;2.67;;;0.40;;
59239;SDS011;45010;53.640;10.578;2022-07-11T11:50:23;2.83;;;0.40;;
59239;SDS011;45010;53.640;10.578;2022-07-11T11:53:24;4.55;;;0.40;;
59239;SDS011;45010;53.640;10.578;2022-07-11T11:59:34;1.80;;;0.40;;
59239;SDS011;45010;53.640;10.578;2022-07-11T12:02:34;3.80;;;0.75;;
59239;SDS011;45010;53.640;10.578;2022-07-11T12:05:35;1.58;;;0.30;;
59239;SDS011;45010;53.640;10.578;2022-07-11T12:08:35;4.05;;;0.75;;
59239;SDS011;45010;53.640;10.578;2022-07-11T12:11:36;2.60;;;0.55;;
59239;SDS011;45010;53.640;10.578;2022-07-11T12:14:38;1.42;;;0.32;;
59239;SDS011;45010;53.640;10.578;2022-07-11T12:17:38;1.13;;;0.50;;
59239;SDS011;45010;53.640;10.578;2022-07-11T12:20:39;2.55;;;0.30;;
59239;SDS011;45010;53.640;10.578;2022-07-11T12:23:41;1.67;;;0.40;;
59239;SDS011;45010;53.640;10.578;2022-07-11T12:26:42;4.35;;;0.60;;
59239;SDS011;45010;53.640;10.578;2022-07-11T12:29:42;2.08;;;0.40;;
59239;SDS011;45010;53.640;10.578;2022-07-11T12:33:01;1.25;;;0.32;;
59239;SDS011;45010;53.640;10.578;2022-07-11T12:36:05;3.88;;;0.50;;
59239;SDS011;45010;53.640;10.578;2022-07-11T12:39:06;1.95;;;0.40;;
59239;SDS011;45010;53.640;10.578;2022-07-11T12:42:22;1.17;;;0.40;;
59239;SDS011;45010;53.640;10.578;2022-07-11T12:45:23;1.00;;;0.40;;
59239;SDS011;45010;53.640;10.578;2022-07-11T12:48:36;1.35;;;0.50;;
59239;SDS011;45010;53.640;10.578;2022-07-11T12:51:38;1.27;;;0.60;;
59239;SDS011;45010;53.640;10.578;2022-07-11T12:54:43;2.08;;;0.50;;
59239;SDS011;45010;53.640;10.578;2022-07-11T12:57:59;1.10;;;0.40;;
59239;SDS011;45010;53.640;10.578;2022-07-11T13:01:03;2.60;;;0.40;;
59239;SDS011;45010;53.640;10.578;2022-07-11T13:04:03;3.50;;;0.77;;
59239;SDS011;45010;53.640;10.578;2022-07-11T13:10:51;0.93;;;0.35;;
59239;SDS011;45010;53.640;10.578;2022-07-11T13:13:51;4.40;;;0.70;;
59239;SDS011;45010;53.640;10.578;2022-07-11T13:16:52;3.22;;;0.60;;
59239;SDS011;45010;53.640;10.578;2022-07-11T13:19:53;2.95;;;0.60;;
59239;SDS011;45010;53.640;10.578;2022-07-11T13:22:55;1.67;;;0.50;;
59239;SDS011;45010;53.640;10.578;2022-07-11T13:25:56;3.67;;;0.60;;
59239;SDS011;45010;53.640;10.578;2022-07-11T13:28:57;0.98;;;0.47;;
59239;SDS011;45010;53.640;10.578;2022-07-11T13:31:57;3.65;;;0.73;;
59239;SDS011;45010;53.640;10.578;2022-07-11T13:34:57;4.07;;;0.75;;
59239;SDS011;45010;53.640;10.578;2022-07-11T13:37:58;4.35;;;0.70;;
59239;SDS011;45010;53.640;10.578;2022-07-11T13:40:58;1.42;;;0.40;;
59239;SDS011;45010;53.640;10.578;2022-07-11T13:43:59;2.90;;;0.52;;
59239;SDS011;45010;53.640;10.578;2022-07-11T13:46:59;2.80;;;0.50;;
59239;SDS011;45010;53.640;10.578;2022-07-11T13:50:00;1.15;;;0.43;;
59239;SDS011;45010;53.640;10.578;2022-07-11T13:53:01;3.63;;;0.65;;
59239;SDS011;45010;53.640;10.578;2022-07-11T13:56:01;2.33;;;0.50;;
59239;SDS011;45010;53.640;10.578;2022-07-11T13:59:02;3.85;;;0.60;;
59239;SDS011;45010;53.640;10.578;2022-07-11T14:02:02;1.63;;;0.40;;
59239;SDS011;45010;53.640;10.578;2022-07-11T14:05:04;1.55;;;0.40;;
59239;SDS011;45010;53.640;10.578;2022-07-11T14:08:05;2.30;;;0.57;;
59239;SDS011;45010;53.640;10.578;2022-07-11T14:11:05;0.95;;;0.40;;
59239;SDS011;45010;53.640;10.578;2022-07-11T14:14:05;1.33;;;0.57;;
59239;SDS011;45010;53.640;10.578;2022-07-11T14:17:06;1.75;;;0.63;;
59239;SDS011;45010;53.640;10.578;2022-07-11T14:20:07;1.23;;;0.40;;
59239;SDS011;45010;53.640;10.578;2022-07-11T14:23:08;4.20;;;0.60;;
59239;SDS011;45010;53.640;10.578;2022-07-11T14:26:09;0.75;;;0.43;;
59239;SDS011;45010;53.640;10.578;2022-07-11T14:29:09;1.92;;;0.50;;
59239;SDS011;45010;53.640;10.578;2022-07-11T14:32:14;2.42;;;0.43;;
59239;SDS011;45010;53.640;10.578;2022-07-11T14:35:14;4.65;;;0.73;;
59239;SDS011;45010;53.640;10.578;2022-07-11T14:38:15;1.25;;;0.50;;
59239;SDS011;45010;53.640;10.578;2022-07-11T14:41:15;2.42;;;0.55;;
59239;SDS011;45010;53.640;10.578;2022-07-11T14:44:16;1.52;;;0.52;;
59239;SDS011;45010;53.640;10.578;2022-07-11T14:47:17;2.38;;;0.40;;
59239;SDS011;45010;53.640;10.578;2022-07-11T14:50:17;1.27;;;0.40;;
59239;SDS011;45010;53.640;10.578;2022-07-11T14:53:17;2.25;;;0.40;;
59239;SDS011;45010;53.640;10.578;2022-07-11T14:56:17;1.77;;;0.50;;
59239;SDS011;45010;53.640;10.578;2022-07-11T14:59:18;1.00;;;0.30;;
59239;SDS011;45010;53.640;10.578;2022-07-11T15:02:18;1.25;;;0.30;;
59239;SDS011;45010;53.640;10.578;2022-07-11T15:05:37;2.22;;;0.95;;
59239;SDS011;45010;53.640;10.578;2022-07-11T15:08:37;1.70;;;0.65;;
59239;SDS011;45010;53.640;10.578;2022-07-11T15:11:57;2.15;;;0.40;;
59239;SDS011;45010;53.640;10.578;2022-07-11T15:15:15;1.88;;;0.60;;
59239;SDS011;45010;53.640;10.578;2022-07-11T15:18:16;1.38;;;0.30;;
59239;SDS011;45010;53.640;10.578;2022-07-11T15:21:16;4.35;;;0.80;;
59239;SDS011;45010;53.640;10.578;2022-07-11T15:24:16;2.28;;;0.55;;
59239;SDS011;45010;53.640;10.578;2022-07-11T15:27:17;1.23;;;0.43;;
59239;SDS011;45010;53.640;10.578;2022-07-11T15:30:17;1.40;;;0.40;;
59239;SDS011;45010;53.640;10.578;2022-07-11T15:33:18;3.60;;;0.60;;
59239;SDS011;45010;53.640;10.578;2022-07-11T15:36:18;1.38;;;0.70;;
59239;SDS011;45010;53.640;10.578;2022-07-11T15:39:19;2.78;;;1.00;;
59239;SDS011;45010;53.640;10.578;2022-07-11T15:42:19;3.28;;;1.23;;
59239;SDS011;45010;53.640;10.578;2022-07-11T15:45:20;3.88;;;1.02;;
59239;SDS011;45010;53.640;10.578;2022-07-11T15:48:20;5.05;;;1.00;;
59239;SDS011;45010;53.640;10.578;2022-07-11T15:51:21;8.68;;;1.35;;
59239;SDS011;45010;53.640;10.578;2022-07-11T15:54:21;2.80;;;1.25;;
59239;SDS011;45010;53.640;10.578;2022-07-11T15:57:22;3.55;;;0.95;;
59239;SDS011;45010;53.640;10.578;2022-07-11T16:00:22;4.05;;;1.20;;
59239;SDS011;45010;53.640;10.578;2022-07-11T16:03:22;3.80;;;1.35;;
59239;SDS011;45010;53.640;10.578;2022-07-11T16:06:22;2.15;;;1.10;;
59239;SDS011;45010;53.640;10.578;2022-07-11T16:09:23;3.67;;;1.10;;
59239;SDS011;45010;53.640;10.578;2022-07-11T16:12:23;7.88;;;1.10;;
59239;SDS011;45010;53.640;10.578;2022-07-11T16:15:24;2.63;;;0.85;;
59239;SDS011;45010;53.640;10.578;2022-07-11T16:18:24;2.72;;;1.10;;
59239;SDS011;45010;53.640;10.578;2022-07-11T16:21:27;6.25;;;2.10;;
59239;SDS011;45010;53.640;10.578;2022-07-11T16:24:31;4.93;;;2.30;;
59239;SDS011;45010;53.640;10.578;2022-07-11T16:27:31;5.07;;;2.38;;
59239;SDS011;45010;53.640;10.578;2022-07-11T16:30:32;6.80;;;2.85;;
59239;SDS011;45010;53.640;10.578;2022-07-11T16:33:32;4.55;;;1.92;;
59239;SDS011;45010;53.640;10.578;2022-07-11T16:36:32;4.63;;;2.00;;
59239;SDS011;45010;53.640;10.578;2022-07-11T16:39:33;5.32;;;1.83;;
59239;SDS011;45010;53.640;10.578;2022-07-11T16:42:52;3.53;;;1.63;;
59239;SDS011;45010;53.640;10.578;2022-07-11T16:46:11;3.60;;;1.50;;
59239;SDS011;45010;53.640;10.578;2022-07-11T16:49:12;3.10;;;1.15;;
59239;SDS011;45010;53.640;10.578;2022-07-11T16:52:13;3.40;;;1.10;;
59239;SDS011;45010;53.640;10.578;2022-07-11T16:55:14;2.33;;;1.10;;
59239;SDS011;45010;53.640;10.578;2022-07-11T16:58:14;4.90;;;1.33;;
59239;SDS011;45010;53.640;10.578;2022-07-11T17:01:15;3.05;;;1.00;;
59239;SDS011;45010;53.640;10.578;2022-07-11T17:04:15;2.53;;;1.13;;
59239;SDS011;45010;53.640;10.578;2022-07-11T17:07:15;4.28;;;1.20;;
59239;SDS011;45010;53.640;10.578;2022-07-11T17:10:16;4.13;;;1.10;;
59239;SDS011;45010;53.640;10.578;2022-07-11T17:13:17;2.45;;;1.00;;
59239;SDS011;45010;53.640;10.578;2022-07-11T17:16:17;1.60;;;0.63;;
59239;SDS011;45010;53.640;10.578;2022-07-11T17:19:17;2.25;;;0.95;;
59239;SDS011;45010;53.640;10.578;2022-07-11T17:22:18;2.05;;;0.68;;
59239;SDS011;45010;53.640;10.578;2022-07-11T17:25:18;1.98;;;0.80;;
59239;SDS011;45010;53.640;10.578;2022-07-11T17:28:19;2.03;;;0.60;;
59239;SDS011;45010;53.640;10.578;2022-07-11T17:31:20;3.53;;;0.80;;
59239;SDS011;45010;53.640;10.578;2022-07-11T17:34:20;1.85;;;0.82;;
59239;SDS011;45010;53.640;10.578;2022-07-11T17:37:21;1.15;;;0.60;;
59239;SDS011;45010;53.640;10.578;2022-07-11T17:40:22;0.85;;;0.70;;
59239;SDS011;45010;53.640;10.578;2022-07-11T17:43:22;2.33;;;0.80;;
59239;SDS011;45010;53.640;10.578;2022-07-11T17:46:23;1.83;;;0.88;;
59239;SDS011;45010;53.640;10.578;2022-07-11T17:49:23;2.25;;;0.80;;
59239;SDS011;45010;53.640;10.578;2022-07-11T17:52:24;0.73;;;0.50;;
59239;SDS011;45010;53.640;10.578;2022-07-11T17:55:24;3.78;;;0.80;;
59239;SDS011;45010;53.640;10.578;2022-07-11T17:58:25;1.08;;;0.52;;
59239;SDS011;45010;53.640;10.578;2022-07-11T18:01:25;1.63;;;0.75;;
59239;SDS011;45010;53.640;10.578;2022-07-11T18:04:27;1.70;;;0.93;;
59239;SDS011;45010;53.640;10.578;2022-07-11T18:07:27;1.25;;;0.65;;
59239;SDS011;45010;53.640;10.578;2022-07-11T18:10:27;4.65;;;1.48;;
59239;SDS011;45010;53.640;10.578;2022-07-11T18:13:28;3.42;;;0.50;;
59239;SDS011;45010;53.640;10.578;2022-07-11T18:16:29;1.58;;;0.60;;
59239;SDS011;45010;53.640;10.578;2022-07-11T18:19:30;2.08;;;0.50;;
59239;SDS011;45010;53.640;10.578;2022-07-11T18:22:30;1.35;;;0.52;;
59239;SDS011;45010;53.640;10.578;2022-07-11T18:25:30;2.15;;;0.70;;
59239;SDS011;45010;53.640;10.578;2022-07-11T18:28:31;1.52;;;0.50;;